Time;durP1;ratioP1;P1;durP2;ratioP2;P2;SDS_P1;SDS_P2;PMS_P1;PMS_P2;Temp;Humidity;BMP_temperature;BMP_pressure;BME280_temperature;BME280_humidity;BME280_pressure;Samples;Min_cycle;Max_cycle;Signal;HPM_P1;HPM_P2
2024/04/18 00:01:54;;;;;;;3.78;2.20;;;;;;;-141.15;100.00;60025.94;5566501;26;20062;-71
2024/04/18 00:04:25;;;;;;;4.45;2.60;;;;;;;-141.15;100.00;60025.94;5570561;26;20012;-69
2024/04/18 00:06:55;;;;;;;5.50;2.70;;;;;;;-141.15;100.00;60025.94;5567262;26;20414;-71
2024/04/18 00:09:25;;;;;;;4.18;2.65;;;;;;;-141.15;100.00;60025.94;5566852;26;19997;-71
2024/04/18 00:11:56;;;;;;;4.38;2.80;;;;;;;-141.15;100.00;60025.94;5569256;26;20014;-72
2024/04/18 00:14:26;;;;;;;5.80;2.80;;;;;;;-141.15;100.00;60025.94;5561326;26;20010;-71
2024/04/18 00:16:56;;;;;;;5.40;3.20;;;;;;;-141.15;100.00;60025.94;5572075;26;20002;-69
2024/04/18 00:19:27;;;;;;;5.85;2.83;;;;;;;-141.15;100.00;60025.94;5565416;26;19999;-71
2024/04/18 00:21:58;;;;;;;8.73;3.10;;;;;;;-141.15;100.00;60025.94;5563347;26;20010;-69
2024/04/18 00:24:28;;;;;;;4.30;3.10;;;;;;;-141.15;100.00;60025.94;5564413;26;20008;-70
2024/04/18 00:26:58;;;;;;;5.78;2.72;;;;;;;-141.15;100.00;60025.94;5568999;26;19999;-70
2024/04/18 00:29:29;;;;;;;4.25;2.78;;;;;;;-141.15;100.00;60025.94;5569206;26;20000;-70
2024/04/18 00:31:59;;;;;;;5.30;2.90;;;;;;;-141.15;100.00;60025.94;5566614;26;20008;-71
2024/04/18 00:34:29;;;;;;;4.28;2.53;;;;;;;-141.15;100.00;60025.94;5564468;26;20007;-69
2024/04/18 00:37:00;;;;;;;6.13;3.00;;;;;;;-141.15;100.00;60025.94;5562444;26;20022;-72
2024/04/18 00:39:30;;;;;;;4.25;2.70;;;;;;;-141.15;100.00;60025.94;5587549;26;20000;-70
2024/04/18 00:42:00;;;;;;;6.68;3.10;;;;;;;-141.15;100.00;60025.94;5548941;26;20011;-69
2024/04/18 00:44:31;;;;;;;4.43;3.17;;;;;;;-141.15;100.00;60025.94;5554337;26;20006;-72
2024/04/18 00:47:02;;;;;;;5.90;2.92;;;;;;;-141.15;100.00;60025.94;5561125;26;20423;-71
2024/04/18 00:49:32;;;;;;;4.47;3.10;;;;;;;-141.15;100.00;60025.94;5561530;26;20004;-71
2024/04/18 00:52:03;;;;;;;4.63;3.00;;;;;;;-141.15;100.00;60025.94;5564850;26;20635;-72
2024/04/18 00:54:33;;;;;;;4.07;2.75;;;;;;;-141.15;100.00;60025.94;5565537;26;20314;-70
2024/04/18 00:57:04;;;;;;;5.90;3.00;;;;;;;-141.15;100.00;60025.94;5570387;26;20444;-69
2024/04/18 00:59:36;;;;;;;4.53;3.17;;;;;;;-141.15;100.00;60025.94;5567117;26;20000;-70
2024/04/18 01:02:06;;;;;;;6.75;2.80;;;;;;;-141.15;100.00;60025.94;5564457;26;20520;-68
2024/04/18 01:04:39;;;;;;;4.05;2.50;;;;;;;-141.15;100.00;60025.94;5567554;26;19996;-72
2024/04/18 01:07:09;;;;;;;5.47;2.60;;;;;;;-141.15;100.00;60025.94;5564827;26;20703;-71
2024/04/18 01:09:39;;;;;;;7.53;2.40;;;;;;;-141.15;100.00;60025.94;5568223;26;20078;-72
2024/04/18 01:12:10;;;;;;;3.72;2.20;;;;;;;-141.15;100.00;60025.94;5562973;26;20004;-71
2024/04/18 01:14:41;;;;;;;2.88;2.00;;;;;;;-141.15;100.00;60025.94;5563510;26;20012;-71
2024/04/18 01:17:11;;;;;;;6.03;2.38;;;;;;;-141.15;100.00;60025.94;5566018;26;20023;-70
2024/04/18 01:19:42;;;;;;;5.43;2.13;;;;;;;-141.15;100.00;60025.94;5564982;26;20279;-71
2024/04/18 01:22:12;;;;;;;4.05;2.33;;;;;;;-141.15;100.00;60025.94;5562351;26;19999;-70
2024/04/18 01:24:42;;;;;;;4.90;2.38;;;;;;;-141.15;100.00;60025.94;5567912;26;20011;-68
2024/04/18 01:27:12;;;;;;;3.65;2.22;;;;;;;-141.15;100.00;60025.94;5562226;26;20007;-70
2024/04/18 01:29:43;;;;;;;4.97;2.30;;;;;;;-141.15;100.00;60025.94;5567390;26;20355;-70
2024/04/18 01:32:14;;;;;;;5.10;2.40;;;;;;;-141.15;100.00;60025.94;5560245;26;19996;-73
2024/04/18 01:34:44;;;;;;;4.38;2.17;;;;;;;-141.15;100.00;60025.94;5569593;26;19996;-70
2024/04/18 01:37:14;;;;;;;3.25;2.10;;;;;;;-141.15;100.00;60025.94;5562950;26;19999;-70
2024/04/18 01:39:44;;;;;;;4.50;2.35;;;;;;;-141.15;100.00;60025.94;5569485;26;20404;-68
2024/04/18 01:42:15;;;;;;;5.03;2.35;;;;;;;-141.15;100.00;60025.94;5572028;26;20007;-73
2024/04/18 01:44:46;;;;;;;3.50;2.30;;;;;;;-141.15;100.00;60025.94;5568844;26;19995;-70
2024/04/18 01:47:17;;;;;;;3.03;2.10;;;;;;;-141.15;100.00;60025.94;5561235;26;20470;-70
2024/04/18 01:49:47;;;;;;;6.75;2.65;;;;;;;-141.15;100.00;60025.94;5562902;26;20045;-73
2024/04/18 01:52:17;;;;;;;4.32;2.40;;;;;;;-141.15;100.00;60025.94;5568073;26;20084;-71
2024/04/18 01:54:47;;;;;;;4.35;2.42;;;;;;;-141.15;100.00;60025.94;5564409;26;20043;-69
2024/04/18 01:57:18;;;;;;;6.20;2.35;;;;;;;-141.15;100.00;60025.94;5573689;26;19999;-70
2024/04/18 01:59:48;;;;;;;3.40;2.10;;;;;;;-141.15;100.00;60025.94;5563660;26;20026;-68
2024/04/18 02:02:19;;;;;;;5.30;2.42;;;;;;;-141.15;100.00;60025.94;5597491;26;20005;-72
2024/04/18 02:04:49;;;;;;;4.20;2.25;;;;;;;-141.15;100.00;60025.94;5565295;26;20408;-71
2024/04/18 02:07:19;;;;;;;3.58;2.38;;;;;;;-141.15;100.00;60025.94;5561300;26;20363;-70
2024/04/18 02:09:50;;;;;;;3.97;2.25;;;;;;;-141.15;100.00;60025.94;5574328;26;20078;-72
2024/04/18 02:12:20;;;;;;;4.60;2.42;;;;;;;-141.15;100.00;60025.94;5565763;26;20014;-71
2024/04/18 02:14:50;;;;;;;4.57;2.15;;;;;;;-141.15;100.00;60025.94;5562404;26;20004;-70
2024/04/18 02:17:21;;;;;;;3.33;2.30;;;;;;;-141.15;100.00;60025.94;5568020;26;20457;-72
2024/04/18 02:19:51;;;;;;;5.90;2.50;;;;;;;-141.15;100.00;60025.94;5563242;26;20451;-71
2024/04/18 02:22:21;;;;;;;4.60;2.47;;;;;;;-141.15;100.00;60025.94;5568500;26;20000;-70
2024/04/18 02:25:10;;;;;;;4.30;2.60;;;;;;;-141.15;100.00;60025.94;5572872;26;20463;-73
2024/04/18 02:27:41;;;;;;;5.88;2.30;;;;;;;-141.15;100.00;60025.94;5575202;26;20011;-70
2024/04/18 02:30:12;;;;;;;3.30;2.47;;;;;;;-141.15;100.00;60025.94;5568381;26;20026;-70
2024/04/18 02:32:42;;;;;;;5.70;2.63;;;;;;;-141.15;100.00;60025.94;5563404;26;19996;-69
2024/04/18 02:35:12;;;;;;;6.15;2.67;;;;;;;-141.15;100.00;60025.94;5565719;26;20010;-69
2024/04/18 02:37:43;;;;;;;4.43;2.35;;;;;;;-141.15;100.00;60025.94;5573741;26;19991;-68
2024/04/18 02:40:13;;;;;;;4.90;2.50;;;;;;;-141.15;100.00;60025.94;5570063;26;20003;-69
2024/04/18 02:42:43;;;;;;;4.47;2.45;;;;;;;-141.15;100.00;60025.94;5561673;26;19996;-72
2024/04/18 02:45:14;;;;;;;4.88;2.40;;;;;;;-141.15;100.00;60025.94;5562935;26;20007;-71
2024/04/18 02:47:44;;;;;;;4.80;2.42;;;;;;;-141.15;100.00;60025.94;5562846;26;19999;-72
2024/04/18 02:50:14;;;;;;;6.82;2.55;;;;;;;-141.15;100.00;60025.94;5561483;26;19995;-73
2024/04/18 02:52:45;;;;;;;5.78;2.72;;;;;;;-141.15;100.00;60025.94;5565322;26;20003;-69
2024/04/18 02:55:15;;;;;;;5.95;2.63;;;;;;;-141.15;100.00;60025.94;5567426;26;20572;-70
2024/04/18 02:57:45;;;;;;;4.95;2.83;;;;;;;-141.15;100.00;60025.94;5570342;26;19996;-69
2024/04/18 03:00:16;;;;;;;5.20;2.65;;;;;;;-141.15;100.00;60025.94;5566799;26;20141;-72
2024/04/18 03:02:46;;;;;;;6.53;2.60;;;;;;;-141.15;100.00;60025.94;5570106;26;20009;-69
2024/04/18 03:05:16;;;;;;;4.65;2.60;;;;;;;-141.15;100.00;60025.94;5568480;26;20000;-73
2024/04/18 03:07:47;;;;;;;4.15;2.60;;;;;;;-141.15;100.00;60025.94;5565027;26;19992;-70
2024/04/18 03:10:17;;;;;;;3.63;2.50;;;;;;;-141.15;100.00;60025.94;5566666;26;20011;-70
2024/04/18 03:12:47;;;;;;;6.82;2.50;;;;;;;-141.15;100.00;60025.94;5575199;26;19995;-71
2024/04/18 03:15:18;;;;;;;4.47;2.30;;;;;;;-141.15;100.00;60025.94;5569081;26;19995;-69
2024/04/18 03:17:53;;;;;;;5.85;2.53;;;;;;;-141.15;100.00;60025.94;5563651;26;20014;-70
2024/04/18 03:20:23;;;;;;;6.57;2.58;;;;;;;-141.15;100.00;60025.94;5563016;26;20040;-70
2024/04/18 03:22:53;;;;;;;6.55;2.72;;;;;;;-141.15;100.00;60025.94;5577057;26;20316;-70
2024/04/18 03:25:24;;;;;;;6.63;2.90;;;;;;;-141.15;100.00;60025.94;5561500;26;20000;-71
2024/04/18 03:27:54;;;;;;;4.57;2.80;;;;;;;-141.15;100.00;60025.94;5567092;26;20000;-70
2024/04/18 03:30:24;;;;;;;6.75;2.90;;;;;;;-141.15;100.00;60025.94;5572840;26;20019;-70
2024/04/18 03:32:54;;;;;;;4.40;2.85;;;;;;;-141.15;100.00;60025.94;5575612;26;20478;-72
2024/04/18 03:35:25;;;;;;;5.13;2.70;;;;;;;-141.15;100.00;60025.94;5572171;26;20000;-72
2024/04/18 03:37:55;;;;;;;5.22;2.60;;;;;;;4.68;nan;100429.84;5569581;26;20009;-72
2024/04/18 03:40:25;;;;;;;4.57;2.65;;;;;;;4.76;nan;100428.78;5574798;26;20015;-71
2024/04/18 03:42:56;;;;;;;5.15;2.72;;;;;;;4.98;nan;100433.44;5571441;26;20000;-71
2024/04/18 03:45:26;;;;;;;5.70;2.85;;;;;;;4.90;nan;100428.44;5568818;26;20011;-72
2024/04/18 03:47:57;;;;;;;5.85;2.70;;;;;;;4.78;nan;100445.19;5577268;26;20358;-72
2024/04/18 03:50:27;;;;;;;6.10;2.85;;;;;;;4.90;nan;100436.22;5571194;26;20335;-71
2024/04/18 03:52:57;;;;;;;4.88;2.90;;;;;;;4.72;nan;100445.34;5568085;26;20014;-70
2024/04/18 03:55:28;;;;;;;6.90;3.00;;;;;;;4.68;nan;100448.03;5563819;26;20015;-71
2024/04/18 03:57:58;;;;;;;5.70;2.72;;;;;;;4.93;nan;100441.34;5569012;26;20081;-71
2024/04/18 04:00:28;;;;;;;4.45;2.88;;;;;;;4.77;nan;100451.28;5555067;26;20368;-70
2024/04/18 04:02:58;;;;;;;5.40;2.83;;;;;;;4.77;nan;100458.22;5572722;26;19999;-73
2024/04/18 04:05:29;;;;;;;7.05;2.97;;;;;;;4.54;nan;100453.56;5559733;26;20014;-71
2024/04/18 04:08:05;;;;;;;7.05;2.90;;;;;;;4.59;nan;100461.22;5562445;26;20008;-71
2024/04/18 04:10:35;;;;;;;6.88;3.30;;;;;;;4.57;nan;100463.00;5561473;26;20010;-70
2024/04/18 04:13:05;;;;;;;5.05;3.05;;;;;;;4.56;nan;100469.97;5573356;26;20008;-70
2024/04/18 04:15:35;;;;;;;4.82;2.78;;;;;;;4.68;nan;100466.22;5561642;26;20012;-72
2024/04/18 04:18:06;;;;;;;5.25;2.83;;;;;;;4.59;nan;100472.47;5563590;26;20015;-71
2024/04/18 04:20:36;;;;;;;6.50;3.03;;;;;;;4.70;nan;100475.69;5566076;26;20445;-72
2024/04/18 04:23:07;;;;;;;6.75;3.25;;;;;;;4.63;nan;100479.31;5559975;26;20012;-70
2024/04/18 04:25:37;;;;;;;4.85;2.90;;;;;;;4.71;nan;100481.72;5562317;26;20520;-71
2024/04/18 04:28:07;;;;;;;4.50;2.83;;;;;;;4.47;nan;100485.72;5578047;26;20398;-70
2024/04/18 04:30:37;;;;;;;7.68;3.05;;;;;;;4.47;nan;100495.28;5569404;26;20491;-72
2024/04/18 04:33:08;;;;;;;6.97;3.85;;;;;;;4.54;nan;100494.25;5570775;26;20000;-72
2024/04/18 04:35:38;;;;;;;4.50;2.97;;;;;;;4.64;nan;100499.19;5570799;26;19999;-70
2024/04/18 04:38:08;;;;;;;5.63;3.20;;;;;;;4.60;nan;100504.53;5563146;26;20741;-69
2024/04/18 04:40:39;;;;;;;8.75;3.20;;;;;;;4.29;nan;100506.88;5557283;26;20075;-72
2024/04/18 04:43:09;;;;;;;5.15;3.20;;;;;;;4.45;nan;100517.81;5564079;26;20007;-71
2024/04/18 04:45:40;;;;;;;6.45;3.60;;;;;;;4.46;nan;100527.31;5563156;26;20385;-70
2024/04/18 04:48:10;;;;;;;7.53;3.50;;;;;;;4.78;nan;100524.91;5562305;26;20100;-71
2024/04/18 04:50:40;;;;;;;5.00;3.45;;;;;;;4.74;nan;100539.69;5572463;26;64506;-70
2024/04/18 04:53:55;;;;;;;9.23;3.22;;;;;;;4.91;99.63;100542.75;5745474;25;20306;-69
2024/04/18 04:56:25;;;;;;;6.00;3.03;;;;;;;-141.15;100.00;60025.94;5718378;25;20009;-70
2024/04/18 04:58:55;;;;;;;6.25;3.13;;;;;;;-141.15;100.00;60025.94;5714504;25;20012;-70
2024/04/18 05:01:26;;;;;;;5.22;3.08;;;;;;;-141.15;100.00;60025.94;5680293;25;20702;-70
2024/04/18 05:03:56;;;;;;;6.78;3.30;;;;;;;-141.15;100.00;60025.94;5679336;25;19998;-71
2024/04/18 05:06:26;;;;;;;6.07;3.67;;;;;;;-141.15;100.00;60025.94;5679472;25;19993;-72
2024/04/18 05:08:57;;;;;;;6.57;3.55;;;;;;;-141.15;100.00;60025.94;5678886;25;20012;-72
2024/04/18 05:11:27;;;;;;;5.00;3.50;;;;;;;-141.15;100.00;60025.94;5680284;25;20004;-71
2024/04/18 05:13:57;;;;;;;6.45;3.60;;;;;;;-141.15;100.00;60025.94;5678906;25;20442;-70
2024/04/18 05:16:28;;;;;;;7.03;3.45;;;;;;;-141.15;100.00;60025.94;5678962;25;20082;-70
2024/04/18 05:18:58;;;;;;;8.45;3.50;;;;;;;-141.15;100.00;60025.94;5679186;25;19993;-73
2024/04/18 05:21:28;;;;;;;7.05;3.47;;;;;;;-141.15;100.00;60025.94;5679825;25;19993;-72
2024/04/18 05:23:58;;;;;;;6.80;3.80;;;;;;;-141.15;100.00;60025.94;5677025;25;19994;-72
2024/04/18 05:26:32;;;;;;;9.90;3.90;;;;;;;-141.15;100.00;60025.94;5678222;25;19998;-71
2024/04/18 05:32:02;;;;;;;7.78;3.33;;;;;;;5.28;nan;100580.88;5383808;27;20019;-74
2024/04/18 05:34:33;;;;;;;7.35;3.50;;;;;;;6.01;nan;100574.72;5386874;27;19999;-74
2024/04/18 05:37:04;;;;;;;5.70;3.28;;;;;;;6.94;nan;100572.88;5390358;27;20007;-73
2024/04/18 05:39:34;;;;;;;4.22;2.75;;;;;;;7.95;nan;100575.69;5387591;27;20022;-75
2024/04/18 05:42:05;;;;;;;6.45;2.80;;;;;;;8.93;nan;100569.41;5389329;27;20018;-74
2024/04/18 05:44:41;;;;;;;4.00;2.13;;;;;;;9.40;nan;100575.44;5389371;27;20018;-75
2024/04/18 05:47:12;;;;;;;5.47;2.40;;;;;;;9.24;nan;100587.41;5388852;27;20012;-73
2024/04/18 05:49:42;;;;;;;4.68;2.20;;;;;;;8.24;nan;100586.00;5391879;27;20052;-72
2024/04/18 05:52:12;;;;;;;6.05;2.63;;;;;;;8.24;nan;100584.22;5403711;27;20018;-74
2024/04/18 05:54:43;;;;;;;5.53;2.97;;;;;;;7.55;nan;100598.78;5385309;27;20001;-71
2024/04/18 05:57:13;;;;;;;5.78;3.08;;;;;;;7.90;nan;100598.50;5387188;27;20044;-75
2024/04/18 05:59:43;;;;;;;5.15;2.80;;;;;;;7.35;nan;100603.78;5390663;27;20032;-73
2024/04/18 06:02:14;;;;;;;11.38;3.08;;;;;;;7.22;nan;100611.13;5390585;27;19995;-74
2024/04/18 06:04:44;;;;;;;7.45;3.10;;;;;;;7.20;nan;100612.09;5377988;27;20027;-73
2024/04/18 06:07:14;;;;;;;6.32;2.80;;;;;;;6.99;nan;100613.56;5376011;27;20016;-74
2024/04/18 06:09:45;;;;;;;5.95;2.72;;;;;;;6.54;nan;100619.25;5375212;27;20474;-75
2024/04/18 06:12:17;;;;;;;5.30;2.70;;;;;;;6.47;nan;100617.75;5374797;27;20007;-74
2024/04/18 06:14:48;;;;;;;6.15;3.05;;;;;;;6.75;nan;100623.88;5374620;27;20549;-72
2024/04/18 06:17:19;;;;;;;5.25;3.03;;;;;;;6.93;nan;100626.81;5387369;27;20011;-72
2024/04/18 06:19:50;;;;;;;5.95;3.22;;;;;;;6.64;nan;100635.50;5375025;27;20014;-71
2024/04/18 06:22:20;;;;;;;5.88;3.00;;;;;;;6.22;nan;100641.88;5378371;27;20452;-71
2024/04/18 06:24:52;;;;;;;5.40;2.85;;;;;;;6.48;nan;100642.03;5369865;27;20019;-71
2024/04/18 06:27:23;;;;;;;5.85;3.20;;;;;;;6.35;nan;100646.72;5374774;27;20082;-71
2024/04/18 06:29:53;;;;;;;6.25;3.28;;;;;;;6.51;nan;100650.63;5383166;27;20037;-72
2024/04/18 06:32:24;;;;;;;4.65;2.92;;;;;;;6.74;nan;100648.22;5411696;27;20077;-71
2024/04/18 06:34:54;;;;;;;5.57;2.92;;;;;;;6.98;nan;100653.59;5407558;27;20007;-72
2024/04/18 06:37:25;;;;;;;6.07;3.08;;;;;;;7.08;nan;100659.41;5409847;27;20003;-72
2024/04/18 06:39:56;;;;;;;5.47;3.20;;;;;;;6.95;nan;100658.03;5406866;27;20052;-72
2024/04/18 06:42:26;;;;;;;5.22;2.65;;;;;;;9.30;nan;100653.47;5409411;27;20007;-72
2024/04/18 06:44:56;;;;;;;5.00;2.47;;;;;;;10.46;nan;100644.28;5408276;27;20007;-72
2024/04/18 06:47:27;;;;;;;6.30;2.67;;;;;;;11.29;nan;100652.72;5406710;27;20007;-73
2024/04/18 06:49:57;;;;;;;4.40;2.60;;;;;;;13.85;nan;100633.94;5406470;27;20085;-73
2024/04/18 06:52:27;;;;;;;5.13;2.10;;;;;;;14.93;nan;100637.97;5406644;27;20649;-73
2024/04/18 06:54:58;;;;;;;3.58;1.90;;;;;;;14.96;nan;100635.13;5407681;27;20047;-73
2024/04/18 06:57:28;;;;;;;4.70;1.80;;;;;;;18.22;nan;100630.06;5407697;27;20013;-73
2024/04/18 06:59:58;;;;;;;2.80;1.90;;;;;;;17.36;nan;100633.81;5378698;27;20000;-73
2024/04/18 07:02:29;;;;;;;3.03;1.70;;;;;;;15.82;nan;100647.19;5380158;27;20010;-73
2024/04/18 07:04:59;;;;;;;2.95;1.80;;;;;;;16.41;nan;100654.69;5407477;27;20294;-73
2024/04/18 07:07:29;;;;;;;4.13;1.90;;;;;;;15.59;nan;100649.63;5410529;27;20506;-72
2024/04/18 07:10:00;;;;;;;2.90;1.70;;;;;;;15.92;nan;100648.31;5407526;27;20306;-72
2024/04/18 07:12:30;;;;;;;4.00;1.90;;;;;;;14.80;nan;100650.22;5409631;27;20238;-72
2024/04/18 07:15:00;;;;;;;4.20;1.95;;;;;;;-141.15;100.00;60025.94;5407368;27;20294;-72
2024/04/18 07:17:30;;;;;;;3.07;2.03;;;;;;;18.10;nan;100652.22;5408098;27;20003;-72
2024/04/18 07:20:01;;;;;;;2.53;1.80;;;;;;;16.95;nan;100651.78;5401510;27;20246;-72
2024/04/18 07:22:31;;;;;;;4.00;1.97;;;;;;;14.12;nan;100666.66;5408651;27;20342;-73
2024/04/18 07:25:01;;;;;;;3.93;1.90;;;;;;;14.86;nan;100665.72;5407579;27;20797;-74
2024/04/18 07:27:31;;;;;;;5.47;1.90;;;;;;;15.06;nan;100663.59;5408612;27;20258;-74
2024/04/18 07:30:03;;;;;;;3.83;1.75;;;;;;;14.96;nan;100665.06;5409052;27;20246;-73
2024/04/18 07:32:34;;;;;;;3.08;1.90;;;;;;;15.50;nan;100663.44;5410017;27;20107;-73
2024/04/18 07:35:05;;;;;;;2.87;1.67;;;;;;;17.20;nan;100662.38;5408813;27;20000;-73
2024/04/18 07:37:35;;;;;;;2.95;1.50;;;;;;;17.53;nan;100659.97;5406269;27;20302;-73
2024/04/18 07:40:12;;;;;;;2.87;1.70;;;;;;;-141.15;100.00;60025.94;5401965;27;20073;-72
2024/04/18 07:42:42;;;;;;;4.43;1.90;;;;;;;-141.15;100.00;60025.94;5403013;27;20242;-70
2024/04/18 07:45:13;;;;;;;2.70;1.60;;;;;;;21.38;nan;100645.34;5406309;27;20014;-72
2024/04/18 07:47:44;;;;;;;3.72;1.88;;;;;;;21.27;nan;100655.28;5408445;27;19999;-72
2024/04/18 07:50:15;;;;;;;4.85;1.83;;;;;;;16.14;nan;100674.22;5406750;27;20343;-72
2024/04/18 07:52:45;;;;;;;3.25;1.40;;;;;;;18.01;nan;100667.00;5404156;27;20039;-72
2024/04/18 07:55:15;;;;;;;3.05;1.88;;;;;;;17.30;nan;100676.66;5404235;27;20161;-73
2024/04/18 07:57:46;;;;;;;3.90;1.70;;;;;;;17.98;nan;100669.91;5405993;27;20018;-73
2024/04/18 08:00:16;;;;;;;2.55;1.40;;;;;;;20.79;nan;100655.00;5409857;27;20414;-73
2024/04/18 08:02:49;;;;;;;5.47;1.60;;;;;;;18.05;nan;100673.81;5407681;27;20520;-73
2024/04/18 08:05:19;;;;;;;3.60;1.67;;;;;;;-141.15;100.00;60025.94;5407061;27;20020;-74
2024/04/18 08:07:50;;;;;;;2.75;1.60;;;;;;;18.80;nan;100678.69;5409134;27;20007;-72
2024/04/18 08:10:20;;;;;;;4.17;1.47;;;;;;;17.69;nan;100687.06;5378809;27;20343;-72
2024/04/18 08:12:50;;;;;;;2.53;1.20;;;;;;;18.44;nan;100681.44;5407067;27;20269;-73
2024/04/18 08:15:20;;;;;;;2.05;1.23;;;;;;;18.58;nan;100690.09;5407142;27;20254;-73
2024/04/18 08:17:51;;;;;;;2.25;1.40;;;;;;;16.56;nan;100696.88;5403313;27;20014;-74
2024/04/18 08:20:21;;;;;;;2.60;1.60;;;;;;;17.62;nan;100688.47;5405336;27;19999;-73
2024/04/18 08:22:51;;;;;;;2.17;1.40;;;;;;;15.19;nan;100690.09;5395654;27;20737;-73
2024/04/18 08:25:22;;;;;;;5.00;1.73;;;;;;;14.67;nan;100695.00;5408367;27;20011;-73
2024/04/18 08:27:52;;;;;;;3.45;1.73;;;;;;;14.85;nan;100695.72;5406153;27;20599;-70
2024/04/18 08:30:22;;;;;;;5.22;1.80;;;;;;;15.41;nan;100701.03;5408027;27;20013;-73
2024/04/18 08:32:52;;;;;;;2.72;1.30;;;;;;;12.97;nan;100702.97;5407450;27;19995;-73
2024/04/18 08:35:23;;;;;;;3.90;1.30;;;;;;;14.08;nan;100696.81;5406909;27;19995;-73
2024/04/18 08:37:53;;;;;;;3.25;1.30;;;;;;;12.20;nan;100705.25;5406597;27;20359;-73
2024/04/18 08:40:25;;;;;;;1.42;0.75;;;;;;;14.68;nan;100693.25;5406143;27;20002;-73
2024/04/18 08:42:56;;;;;;;2.72;0.90;;;;;;;15.46;nan;100693.66;5406582;27;20323;-72
2024/04/18 08:45:26;;;;;;;3.10;1.20;;;;;;;17.28;nan;100691.84;5407949;27;20003;-74
2024/04/18 08:47:58;;;;;;;2.50;1.10;;;;;;;16.97;nan;100691.44;5407214;27;20223;-72
2024/04/18 08:50:30;;;;;;;1.38;1.00;;;;;;;18.96;nan;100684.50;5407424;27;20007;-73
2024/04/18 08:53:04;;;;;;;2.90;0.93;;;;;;;17.72;nan;100700.16;5406896;27;20090;-73
2024/04/18 08:55:35;;;;;;;1.67;1.00;;;;;;;17.75;nan;100701.72;5406195;27;20506;-73
2024/04/18 08:58:10;;;;;;;3.65;1.73;;;;;;;-141.15;100.00;60025.94;5407636;27;19999;-72
2024/04/18 09:00:42;;;;;;;4.25;2.50;;;;;;;18.85;nan;100700.44;5407176;27;20523;-70
2024/04/18 09:03:12;;;;;;;4.50;2.55;;;;;;;18.44;nan;100702.72;5406176;27;20387;-74
2024/04/18 09:05:44;;;;;;;3.67;2.00;;;;;;;18.72;nan;100702.31;5406343;27;20047;-72
2024/04/18 09:08:14;;;;;;;3.40;1.83;;;;;;;20.62;nan;100690.28;5406658;27;19999;-71
2024/04/18 09:10:44;;;;;;;3.33;1.92;;;;;;;18.53;nan;100702.91;5405128;27;20003;-72
2024/04/18 09:13:15;;;;;;;3.80;2.10;;;;;;;16.85;nan;100708.16;5406541;27;20011;-72
2024/04/18 09:15:45;;;;;;;4.00;2.30;;;;;;;14.53;nan;100717.91;5404865;27;20003;-73
2024/04/18 09:18:16;;;;;;;5.05;2.35;;;;;;;14.00;nan;100728.03;5405224;27;20711;-72
2024/04/18 09:20:47;;;;;;;5.13;2.50;;;;;;;12.79;nan;100732.91;5407369;27;20019;-73
2024/04/18 09:23:17;;;;;;;4.63;2.50;;;;;;;12.02;nan;100729.84;5406679;27;20004;-74
2024/04/18 09:25:53;;;;;;;4.60;2.42;;;;;;;12.72;nan;100728.88;5381872;27;20010;-72
2024/04/18 09:28:23;;;;;;;3.88;2.30;;;;;;;12.18;nan;100722.03;5402176;27;20346;-71
2024/04/18 09:30:53;;;;;;;4.30;2.17;;;;;;;11.71;nan;100736.56;5410660;27;20016;-71
2024/04/18 09:33:25;;;;;;;4.03;2.30;;;;;;;10.98;nan;100740.84;5405894;27;20348;-72
2024/04/18 09:35:57;;;;;;;3.55;2.40;;;;;;;11.46;nan;100736.84;5404312;27;19999;-72
2024/04/18 09:38:34;;;;;;;4.18;2.47;;;;;;;11.71;nan;100733.94;5411663;27;20149;-73
2024/04/18 09:41:15;;;;;;;4.18;2.45;;;;;;;12.10;nan;100734.72;5379372;27;20010;-73
2024/04/18 09:43:49;;;;;;;3.40;2.10;;;;;;;13.39;nan;100731.50;5415951;27;20083;-71
2024/04/18 09:46:22;;;;;;;4.60;2.55;;;;;;;14.06;nan;100717.16;5413049;27;20010;-73
2024/04/18 09:48:54;;;;;;;2.85;1.90;;;;;;;12.83;nan;100739.72;5408851;27;20070;-72
2024/04/18 09:51:27;;;;;;;3.33;2.15;;;;;;;12.76;nan;100733.06;5409529;27;19995;-72
2024/04/18 09:53:58;;;;;;;5.68;2.08;;;;;;;12.55;nan;100730.66;5413113;27;20031;-71
2024/04/18 09:56:29;;;;;;;6.03;1.88;;;;;;;11.95;nan;100735.47;5413289;27;20079;-73
2024/04/18 09:59:00;;;;;;;3.13;1.77;;;;;;;12.34;nan;100736.13;5410645;27;20073;-75
2024/04/18 10:01:32;;;;;;;8.60;5.47;;;;;;;11.27;nan;100730.72;5409862;27;20403;-73
2024/04/18 10:04:02;;;;;;;3.97;2.72;;;;;;;11.39;nan;100743.31;5403708;27;20118;-74
2024/04/18 10:06:36;;;;;;;3.97;2.40;;;;;;;11.58;nan;100738.91;5407758;27;20009;-73
2024/04/18 10:09:08;;;;;;;4.32;2.20;;;;;;;11.28;nan;100742.09;5406990;27;20035;-74
2024/04/18 10:11:40;;;;;;;4.47;2.97;;;;;;;11.03;nan;100736.22;5414293;27;19999;-74
2024/04/18 10:14:11;;;;;;;4.53;3.40;;;;;;;10.99;nan;100743.41;5404660;27;20007;-73
2024/04/18 10:16:49;;;;;;;4.10;2.47;;;;;;;11.32;nan;100735.78;5408592;27;20015;-70
2024/04/18 10:19:23;;;;;;;5.70;3.95;;;;;;;12.30;nan;100737.22;5408416;27;20023;-74
2024/04/18 10:21:58;;;;;;;3.97;3.08;;;;;;;11.14;nan;100740.06;5405900;27;20255;-73
2024/04/18 10:24:35;;;;;;;4.95;2.40;;;;;;;11.67;nan;100735.00;5412234;27;20010;-73
2024/04/18 10:27:14;;;;;;;4.45;2.90;;;;;;;11.76;nan;100745.13;5408057;27;20007;-72
2024/04/18 10:29:57;;;;;;;4.70;2.30;;;;;;;10.65;nan;100744.91;5409233;27;20011;-73
2024/04/18 10:32:30;;;;;;;4.80;2.85;;;;;;;10.57;nan;100737.31;5408439;27;20023;-73
2024/04/18 10:35:02;;;;;;;3.80;2.30;;;;;;;10.89;nan;100731.59;5408006;27;20529;-73
2024/04/18 10:37:33;;;;;;;5.07;2.47;;;;;;;10.13;nan;100741.88;5405450;27;20070;-74
2024/04/18 10:40:03;;;;;;;5.03;2.38;;;;;;;10.76;nan;100735.66;5407040;27;20011;-73
2024/04/18 10:42:37;;;;;;;4.03;2.28;;;;;;;11.23;nan;100730.94;5409984;27;20022;-73
2024/04/18 10:45:07;;;;;;;3.50;2.10;;;;;;;11.53;nan;100734.78;5375931;27;20514;-73
2024/04/18 10:47:39;;;;;;;3.10;1.52;;;;;;;11.25;nan;100729.13;5406475;27;20014;-72
2024/04/18 10:50:10;;;;;;;4.20;2.40;;;;;;;11.23;nan;100731.81;5410787;27;20018;-73
2024/04/18 10:52:40;;;;;;;5.13;2.38;;;;;;;11.62;nan;100731.75;5412458;27;20039;-73
2024/04/18 10:55:10;;;;;;;2.83;1.50;;;;;;;11.46;nan;100730.75;5405427;27;20416;-74
2024/04/18 10:57:40;;;;;;;2.47;1.52;;;;;;;11.29;nan;100730.69;5405190;27;20007;-73
2024/04/18 11:00:15;;;;;;;4.63;1.75;;;;;;;11.30;nan;100732.38;5406448;27;20030;-73
2024/04/18 11:02:45;;;;;;;3.60;2.00;;;;;;;11.37;nan;100739.91;5408641;27;20461;-72
2024/04/18 11:05:16;;;;;;;4.00;1.90;;;;;;;11.81;nan;100725.53;5401197;27;20007;-73
2024/04/18 11:07:53;;;;;;;10.27;5.05;;;;;;;11.53;nan;100729.53;5406556;27;20707;-71
2024/04/18 11:10:26;;;;;;;6.50;3.92;;;;;;;11.95;nan;100722.31;5407936;27;19999;-72
2024/04/18 11:12:57;;;;;;;5.05;2.70;;;;;;;11.94;nan;100720.63;5411272;27;20498;-72
2024/04/18 11:15:31;;;;;;;7.03;5.57;;;;;;;11.92;nan;100722.47;5407573;27;19999;-73
2024/04/18 11:18:04;;;;;;;3.97;2.38;;;;;;;11.59;nan;100729.28;5407756;27;20017;-73
2024/04/18 11:20:35;;;;;;;4.97;2.40;;;;;;;11.63;nan;100720.31;5405144;27;20007;-73
2024/04/18 11:23:08;;;;;;;6.50;4.18;;;;;;;11.49;nan;100717.47;5409625;27;20003;-71
2024/04/18 11:25:39;;;;;;;2.92;1.83;;;;;;;11.44;nan;100715.06;5406616;27;19999;-72
2024/04/18 11:28:09;;;;;;;6.05;2.00;;;;;;;11.64;nan;100727.28;5406799;27;20014;-70
2024/04/18 11:30:44;;;;;;;3.53;1.90;;;;;;;11.97;nan;100721.28;5499696;21;20394;-70
2024/04/18 11:33:19;;;;;;;3.87;2.10;;;;;;;11.46;nan;100725.50;5544741;26;20008;-71
2024/04/18 11:35:50;;;;;;;;;;;;;;;12.18;nan;100724.66;5548442;26;20019;-70
2024/04/18 11:38:21;;;;;;;5.72;2.05;;;;;;;11.86;nan;100720.09;5547711;26;19925;-72
2024/04/18 11:40:51;;;;;;;3.05;2.10;;;;;;;12.34;nan;100718.59;5541298;26;20032;-72
2024/04/18 11:43:21;;;;;;;4.78;1.80;;;;;;;12.44;nan;100717.19;5531775;26;20356;-71
2024/04/18 11:45:52;;;;;;;2.20;1.50;;;;;;;11.83;nan;100712.34;5523292;26;20020;-69
2024/04/18 11:48:22;;;;;;;3.05;1.65;;;;;;;12.57;nan;100716.47;5497601;26;20055;-70
2024/04/18 11:50:52;;;;;;;3.55;1.38;;;;;;;12.38;nan;100709.63;5526419;26;20378;-71
2024/04/18 11:53:23;;;;;;;3.38;1.80;;;;;;;12.23;nan;100714.75;5525662;26;20012;-72